sensor_id;sensor_type;location;lat;lon;timestamp;temperature;humidity
48744;DHT22;34538;48.836;9.174;2024-03-02T00:00:14;5.70;99.90
48744;DHT22;34538;48.836;9.174;2024-03-02T00:02:43;5.70;99.90
48744;DHT22;34538;48.836;9.174;2024-03-02T00:05:11;5.70;99.90
48744;DHT22;34538;48.836;9.174;2024-03-02T00:07:40;5.70;99.90
48744;DHT22;34538;48.836;9.174;2024-03-02T00:10:09;5.70;99.90
48744;DHT22;34538;48.836;9.174;2024-03-02T00:12:37;5.70;99.90
48744;DHT22;34538;48.836;9.174;2024-03-02T00:15:05;5.70;99.90
48744;DHT22;34538;48.836;9.174;2024-03-02T00:17:33;5.60;99.90
48744;DHT22;34538;48.836;9.174;2024-03-02T00:20:03;5.60;99.90
48744;DHT22;34538;48.836;9.174;2024-03-02T00:22:30;5.60;99.90
48744;DHT22;34538;48.836;9.174;2024-03-02T00:24:57;5.60;99.90
48744;DHT22;34538;48.836;9.174;2024-03-02T00:27:25;5.60;99.90
48744;DHT22;34538;48.836;9.174;2024-03-02T00:29:51;5.50;99.90
48744;DHT22;34538;48.836;9.174;2024-03-02T00:32:18;5.50;99.90
48744;DHT22;34538;48.836;9.174;2024-03-02T00:34:46;5.50;99.90
48744;DHT22;34538;48.836;9.174;2024-03-02T00:37:14;5.50;99.90
48744;DHT22;34538;48.836;9.174;2024-03-02T00:39:41;5.50;99.90
48744;DHT22;34538;48.836;9.174;2024-03-02T00:42:09;5.50;99.90
48744;DHT22;34538;48.836;9.174;2024-03-02T00:44:37;5.50;99.90
48744;DHT22;34538;48.836;9.174;2024-03-02T00:47:04;5.50;99.90
48744;DHT22;34538;48.836;9.174;2024-03-02T00:49:31;5.40;99.90
48744;DHT22;34538;48.836;9.174;2024-03-02T00:51:59;5.40;99.90
48744;DHT22;34538;48.836;9.174;2024-03-02T00:54:27;5.50;99.90
48744;DHT22;34538;48.836;9.174;2024-03-02T00:56:56;5.40;99.90
48744;DHT22;34538;48.836;9.174;2024-03-02T00:59:24;5.50;99.90
48744;DHT22;34538;48.836;9.174;2024-03-02T01:01:52;5.40;99.90
48744;DHT22;34538;48.836;9.174;2024-03-02T01:04:19;5.40;99.90
48744;DHT22;34538;48.836;9.174;2024-03-02T01:06:46;5.40;99.90
48744;DHT22;34538;48.836;9.174;2024-03-02T01:09:13;5.40;99.90
48744;DHT22;34538;48.836;9.174;2024-03-02T01:11:41;5.40;99.90
48744;DHT22;34538;48.836;9.174;2024-03-02T01:14:08;5.40;99.90
48744;DHT22;34538;48.836;9.174;2024-03-02T01:16:35;5.40;99.90
48744;DHT22;34538;48.836;9.174;2024-03-02T01:19:02;5.40;99.90
48744;DHT22;34538;48.836;9.174;2024-03-02T01:21:29;5.40;99.90
48744;DHT22;34538;48.836;9.174;2024-03-02T01:23:56;5.40;99.90
48744;DHT22;34538;48.836;9.174;2024-03-02T01:26:23;5.40;99.90
48744;DHT22;34538;48.836;9.174;2024-03-02T01:28:51;5.30;99.90
48744;DHT22;34538;48.836;9.174;2024-03-02T01:31:18;5.30;99.90
48744;DHT22;34538;48.836;9.174;2024-03-02T01:33:45;5.30;99.90
48744;DHT22;34538;48.836;9.174;2024-03-02T01:36:12;5.30;99.90
48744;DHT22;34538;48.836;9.174;2024-03-02T01:38:39;5.30;99.90
48744;DHT22;34538;48.836;9.174;2024-03-02T01:41:05;5.20;99.90
48744;DHT22;34538;48.836;9.174;2024-03-02T01:43:32;5.20;99.90
48744;DHT22;34538;48.836;9.174;2024-03-02T01:46:01;5.20;99.90
48744;DHT22;34538;48.836;9.174;2024-03-02T01:48:28;5.10;99.90
48744;DHT22;34538;48.836;9.174;2024-03-02T01:50:54;5.10;99.90
48744;DHT22;34538;48.836;9.174;2024-03-02T01:53:21;5.00;99.90
48744;DHT22;34538;48.836;9.174;2024-03-02T01:55:49;5.00;99.90
48744;DHT22;34538;48.836;9.174;2024-03-02T01:58:16;4.90;99.90
48744;DHT22;34538;48.836;9.174;2024-03-02T02:00:43;4.90;99.90
48744;DHT22;34538;48.836;9.174;2024-03-02T02:03:12;4.80;99.90
48744;DHT22;34538;48.836;9.174;2024-03-02T02:05:39;4.80;99.90
48744;DHT22;34538;48.836;9.174;2024-03-02T02:08:08;4.70;99.90
48744;DHT22;34538;48.836;9.174;2024-03-02T02:10:35;4.70;99.90
48744;DHT22;34538;48.836;9.174;2024-03-02T02:13:02;4.60;99.90
48744;DHT22;34538;48.836;9.174;2024-03-02T02:15:30;4.60;99.90
48744;DHT22;34538;48.836;9.174;2024-03-02T02:17:58;4.50;99.90
48744;DHT22;34538;48.836;9.174;2024-03-02T02:20:26;4.50;99.90
48744;DHT22;34538;48.836;9.174;2024-03-02T02:22:58;4.50;99.90
48744;DHT22;34538;48.836;9.174;2024-03-02T02:25:25;4.40;99.90
48744;DHT22;34538;48.836;9.174;2024-03-02T02:27:52;4.40;99.90
48744;DHT22;34538;48.836;9.174;2024-03-02T02:30:20;4.40;99.90
48744;DHT22;34538;48.836;9.174;2024-03-02T02:32:47;4.30;99.90
48744;DHT22;34538;48.836;9.174;2024-03-02T02:35:14;4.30;99.90
48744;DHT22;34538;48.836;9.174;2024-03-02T02:37:42;4.30;99.90
48744;DHT22;34538;48.836;9.174;2024-03-02T02:40:11;4.30;99.90
48744;DHT22;34538;48.836;9.174;2024-03-02T02:42:38;4.30;99.90
48744;DHT22;34538;48.836;9.174;2024-03-02T02:45:06;4.30;99.90
48744;DHT22;34538;48.836;9.174;2024-03-02T02:47:33;4.30;99.90
48744;DHT22;34538;48.836;9.174;2024-03-02T02:50:01;4.30;99.90
48744;DHT22;34538;48.836;9.174;2024-03-02T02:52:31;4.30;99.90
48744;DHT22;34538;48.836;9.174;2024-03-02T02:55:03;4.30;99.90
48744;DHT22;34538;48.836;9.174;2024-03-02T02:57:31;4.30;99.90
48744;DHT22;34538;48.836;9.174;2024-03-02T03:00:01;4.20;99.90
48744;DHT22;34538;48.836;9.174;2024-03-02T03:02:31;4.20;99.90
48744;DHT22;34538;48.836;9.174;2024-03-02T03:04:57;4.20;99.90
48744;DHT22;34538;48.836;9.174;2024-03-02T03:07:24;4.10;99.90
48744;DHT22;34538;48.836;9.174;2024-03-02T03:09:51;4.00;99.90
48744;DHT22;34538;48.836;9.174;2024-03-02T03:12:18;4.00;99.90
48744;DHT22;34538;48.836;9.174;2024-03-02T03:14:47;4.00;99.90
48744;DHT22;34538;48.836;9.174;2024-03-02T03:17:14;4.00;99.90
48744;DHT22;34538;48.836;9.174;2024-03-02T03:19:41;4.00;99.90
48744;DHT22;34538;48.836;9.174;2024-03-02T03:22:08;4.00;99.90
48744;DHT22;34538;48.836;9.174;2024-03-02T03:24:35;3.90;99.90
48744;DHT22;34538;48.836;9.174;2024-03-02T03:27:02;3.90;99.90
48744;DHT22;34538;48.836;9.174;2024-03-02T03:29:30;3.90;99.90
48744;DHT22;34538;48.836;9.174;2024-03-02T03:31:58;3.80;99.90
48744;DHT22;34538;48.836;9.174;2024-03-02T03:34:24;3.80;99.90
48744;DHT22;34538;48.836;9.174;2024-03-02T03:36:52;3.90;99.90
48744;DHT22;34538;48.836;9.174;2024-03-02T03:39:19;3.90;99.90
48744;DHT22;34538;48.836;9.174;2024-03-02T03:41:46;3.90;99.90
48744;DHT22;34538;48.836;9.174;2024-03-02T03:44:13;4.00;99.90
48744;DHT22;34538;48.836;9.174;2024-03-02T03:46:40;3.90;99.90
48744;DHT22;34538;48.836;9.174;2024-03-02T03:49:09;3.90;99.90
48744;DHT22;34538;48.836;9.174;2024-03-02T03:51:36;3.80;99.90
48744;DHT22;34538;48.836;9.174;2024-03-02T03:54:03;3.70;99.90
48744;DHT22;34538;48.836;9.174;2024-03-02T03:56:30;3.70;99.90
48744;DHT22;34538;48.836;9.174;2024-03-02T03:58:57;3.70;99.90
48744;DHT22;34538;48.836;9.174;2024-03-02T04:01:25;3.70;99.90
48744;DHT22;34538;48.836;9.174;2024-03-02T04:03:52;3.60;99.90
48744;DHT22;34538;48.836;9.174;2024-03-02T04:06:20;3.60;99.90
48744;DHT22;34538;48.836;9.174;2024-03-02T04:08:47;3.50;99.90
48744;DHT22;34538;48.836;9.174;2024-03-02T04:11:14;3.50;99.90
48744;DHT22;34538;48.836;9.174;2024-03-02T04:13:41;3.40;99.90
48744;DHT22;34538;48.836;9.174;2024-03-02T04:16:08;3.40;99.90
48744;DHT22;34538;48.836;9.174;2024-03-02T04:18:35;3.40;99.90
48744;DHT22;34538;48.836;9.174;2024-03-02T04:21:02;3.40;99.90
48744;DHT22;34538;48.836;9.174;2024-03-02T04:23:30;3.40;99.90
48744;DHT22;34538;48.836;9.174;2024-03-02T04:25:57;3.40;99.90
48744;DHT22;34538;48.836;9.174;2024-03-02T04:28:24;3.40;99.90
48744;DHT22;34538;48.836;9.174;2024-03-02T04:30:51;3.40;99.90
48744;DHT22;34538;48.836;9.174;2024-03-02T04:33:17;3.30;99.90
48744;DHT22;34538;48.836;9.174;2024-03-02T04:35:44;3.30;99.90
48744;DHT22;34538;48.836;9.174;2024-03-02T04:38:12;3.30;99.90
48744;DHT22;34538;48.836;9.174;2024-03-02T04:40:40;3.30;99.90
48744;DHT22;34538;48.836;9.174;2024-03-02T04:43:07;3.20;99.90
48744;DHT22;34538;48.836;9.174;2024-03-02T04:45:35;3.30;99.90
48744;DHT22;34538;48.836;9.174;2024-03-02T04:48:02;3.30;99.90
48744;DHT22;34538;48.836;9.174;2024-03-02T04:50:29;3.30;99.90
48744;DHT22;34538;48.836;9.174;2024-03-02T04:52:56;3.30;99.90
48744;DHT22;34538;48.836;9.174;2024-03-02T04:55:23;3.30;99.90
48744;DHT22;34538;48.836;9.174;2024-03-02T04:58:17;3.30;99.90
48744;DHT22;34538;48.836;9.174;2024-03-02T05:00:44;3.30;99.90
48744;DHT22;34538;48.836;9.174;2024-03-02T05:03:12;3.30;99.90
48744;DHT22;34538;48.836;9.174;2024-03-02T05:05:40;3.40;99.90
48744;DHT22;34538;48.836;9.174;2024-03-02T05:08:06;3.40;99.90
48744;DHT22;34538;48.836;9.174;2024-03-02T05:10:34;3.40;99.90
48744;DHT22;34538;48.836;9.174;2024-03-02T05:13:02;3.30;99.90
48744;DHT22;34538;48.836;9.174;2024-03-02T05:15:30;3.40;99.90
48744;DHT22;34538;48.836;9.174;2024-03-02T05:17:57;3.30;99.90
48744;DHT22;34538;48.836;9.174;2024-03-02T05:20:25;3.40;99.90
48744;DHT22;34538;48.836;9.174;2024-03-02T05:22:51;3.40;99.90
48744;DHT22;34538;48.836;9.174;2024-03-02T05:25:18;3.40;99.90
48744;DHT22;34538;48.836;9.174;2024-03-02T05:27:45;3.30;99.90
48744;DHT22;34538;48.836;9.174;2024-03-02T05:30:13;3.30;99.90
48744;DHT22;34538;48.836;9.174;2024-03-02T05:32:41;3.30;99.90
48744;DHT22;34538;48.836;9.174;2024-03-02T05:35:08;3.40;99.90
48744;DHT22;34538;48.836;9.174;2024-03-02T05:37:36;3.30;99.90
48744;DHT22;34538;48.836;9.174;2024-03-02T05:40:05;3.40;99.90
48744;DHT22;34538;48.836;9.174;2024-03-02T05:42:33;3.30;99.90
48744;DHT22;34538;48.836;9.174;2024-03-02T05:44:59;3.30;99.90
48744;DHT22;34538;48.836;9.174;2024-03-02T05:47:26;3.30;99.90
48744;DHT22;34538;48.836;9.174;2024-03-02T05:49:55;3.30;99.90
48744;DHT22;34538;48.836;9.174;2024-03-02T05:52:22;3.20;99.90
48744;DHT22;34538;48.836;9.174;2024-03-02T05:54:49;3.20;99.90
48744;DHT22;34538;48.836;9.174;2024-03-02T05:57:15;3.20;99.90
48744;DHT22;34538;48.836;9.174;2024-03-02T05:59:57;3.20;99.90
48744;DHT22;34538;48.836;9.174;2024-03-02T06:02:25;3.10;99.90
48744;DHT22;34538;48.836;9.174;2024-03-02T06:04:55;3.10;99.90
48744;DHT22;34538;48.836;9.174;2024-03-02T06:07:22;3.10;99.90
48744;DHT22;34538;48.836;9.174;2024-03-02T06:09:49;3.10;99.90
48744;DHT22;34538;48.836;9.174;2024-03-02T06:12:18;3.10;99.90
48744;DHT22;34538;48.836;9.174;2024-03-02T06:14:45;3.10;99.90
48744;DHT22;34538;48.836;9.174;2024-03-02T06:17:12;3.00;99.90
48744;DHT22;34538;48.836;9.174;2024-03-02T06:19:39;3.10;99.90
48744;DHT22;34538;48.836;9.174;2024-03-02T06:22:07;3.00;99.90
48744;DHT22;34538;48.836;9.174;2024-03-02T06:24:36;3.00;99.90
48744;DHT22;34538;48.836;9.174;2024-03-02T06:27:03;3.00;99.90
48744;DHT22;34538;48.836;9.174;2024-03-02T06:29:32;3.00;99.90
48744;DHT22;34538;48.836;9.174;2024-03-02T06:31:59;3.00;99.90
48744;DHT22;34538;48.836;9.174;2024-03-02T06:34:26;3.10;99.90
48744;DHT22;34538;48.836;9.174;2024-03-02T06:36:53;3.10;99.90
48744;DHT22;34538;48.836;9.174;2024-03-02T06:39:21;3.20;99.90
48744;DHT22;34538;48.836;9.174;2024-03-02T06:41:48;3.30;99.90
48744;DHT22;34538;48.836;9.174;2024-03-02T06:44:15;3.40;99.90
48744;DHT22;34538;48.836;9.174;2024-03-02T06:46:42;3.50;99.90
48744;DHT22;34538;48.836;9.174;2024-03-02T06:49:09;3.50;99.90
48744;DHT22;34538;48.836;9.174;2024-03-02T06:51:37;3.60;99.90
48744;DHT22;34538;48.836;9.174;2024-03-02T06:54:03;3.70;99.90
48744;DHT22;34538;48.836;9.174;2024-03-02T06:56:32;3.70;99.90
48744;DHT22;34538;48.836;9.174;2024-03-02T06:58:59;3.80;99.90
48744;DHT22;34538;48.836;9.174;2024-03-02T07:01:26;3.90;99.90
48744;DHT22;34538;48.836;9.174;2024-03-02T07:03:54;4.00;99.90
48744;DHT22;34538;48.836;9.174;2024-03-02T07:06:21;4.10;99.90
48744;DHT22;34538;48.836;9.174;2024-03-02T07:08:47;4.20;99.90
48744;DHT22;34538;48.836;9.174;2024-03-02T07:11:14;4.30;99.90
48744;DHT22;34538;48.836;9.174;2024-03-02T07:13:42;4.40;99.90
48744;DHT22;34538;48.836;9.174;2024-03-02T07:16:09;4.50;99.90
48744;DHT22;34538;48.836;9.174;2024-03-02T07:18:54;4.60;99.90
48744;DHT22;34538;48.836;9.174;2024-03-02T07:21:22;4.80;99.90
48744;DHT22;34538;48.836;9.174;2024-03-02T07:23:49;4.90;99.90
48744;DHT22;34538;48.836;9.174;2024-03-02T07:26:16;5.00;99.90
48744;DHT22;34538;48.836;9.174;2024-03-02T07:28:46;5.10;99.90
48744;DHT22;34538;48.836;9.174;2024-03-02T07:31:13;5.20;99.90
48744;DHT22;34538;48.836;9.174;2024-03-02T07:33:40;5.30;99.90
48744;DHT22;34538;48.836;9.174;2024-03-02T07:36:07;5.40;99.90
48744;DHT22;34538;48.836;9.174;2024-03-02T07:38:34;5.50;99.90
48744;DHT22;34538;48.836;9.174;2024-03-02T07:41:01;5.50;99.90
48744;DHT22;34538;48.836;9.174;2024-03-02T07:43:28;5.60;99.90
48744;DHT22;34538;48.836;9.174;2024-03-02T07:45:56;5.70;99.90
48744;DHT22;34538;48.836;9.174;2024-03-02T07:48:23;5.70;99.90
48744;DHT22;34538;48.836;9.174;2024-03-02T07:50:50;5.80;99.90
48744;DHT22;34538;48.836;9.174;2024-03-02T07:53:17;5.80;99.90
48744;DHT22;34538;48.836;9.174;2024-03-02T07:55:44;5.90;99.90
48744;DHT22;34538;48.836;9.174;2024-03-02T07:58:11;6.00;99.90
48744;DHT22;34538;48.836;9.174;2024-03-02T08:00:39;6.00;99.90
48744;DHT22;34538;48.836;9.174;2024-03-02T08:03:07;6.00;99.90
48744;DHT22;34538;48.836;9.174;2024-03-02T08:05:36;6.10;99.90
48744;DHT22;34538;48.836;9.174;2024-03-02T08:08:04;6.20;99.90
48744;DHT22;34538;48.836;9.174;2024-03-02T08:10:31;6.20;99.90
48744;DHT22;34538;48.836;9.174;2024-03-02T08:12:59;6.20;99.90
48744;DHT22;34538;48.836;9.174;2024-03-02T08:15:26;6.30;99.90
48744;DHT22;34538;48.836;9.174;2024-03-02T08:17:53;6.30;99.90
48744;DHT22;34538;48.836;9.174;2024-03-02T08:20:21;6.30;99.90
48744;DHT22;34538;48.836;9.174;2024-03-02T08:22:48;6.40;99.90
48744;DHT22;34538;48.836;9.174;2024-03-02T08:25:15;6.40;99.90
48744;DHT22;34538;48.836;9.174;2024-03-02T08:27:42;6.40;99.90
48744;DHT22;34538;48.836;9.174;2024-03-02T08:30:10;6.40;99.90
48744;DHT22;34538;48.836;9.174;2024-03-02T08:32:37;6.50;99.90
48744;DHT22;34538;48.836;9.174;2024-03-02T08:35:06;6.60;99.90
48744;DHT22;34538;48.836;9.174;2024-03-02T08:37:35;6.60;99.90
48744;DHT22;34538;48.836;9.174;2024-03-02T08:40:04;6.60;99.90
48744;DHT22;34538;48.836;9.174;2024-03-02T08:42:32;6.70;99.90
48744;DHT22;34538;48.836;9.174;2024-03-02T08:45:00;6.80;99.90
48744;DHT22;34538;48.836;9.174;2024-03-02T08:47:27;6.90;99.90
48744;DHT22;34538;48.836;9.174;2024-03-02T08:49:54;7.00;99.90
48744;DHT22;34538;48.836;9.174;2024-03-02T08:52:21;7.20;99.90
48744;DHT22;34538;48.836;9.174;2024-03-02T08:54:49;7.30;99.90
48744;DHT22;34538;48.836;9.174;2024-03-02T08:57:16;7.40;99.90
48744;DHT22;34538;48.836;9.174;2024-03-02T08:59:43;7.60;99.90
48744;DHT22;34538;48.836;9.174;2024-03-02T09:02:10;7.70;99.90
48744;DHT22;34538;48.836;9.174;2024-03-02T09:04:37;7.80;99.90
48744;DHT22;34538;48.836;9.174;2024-03-02T09:07:04;7.90;99.90
48744;DHT22;34538;48.836;9.174;2024-03-02T09:09:32;8.00;99.90
48744;DHT22;34538;48.836;9.174;2024-03-02T09:12:01;8.10;99.90
48744;DHT22;34538;48.836;9.174;2024-03-02T09:14:28;8.20;99.90
48744;DHT22;34538;48.836;9.174;2024-03-02T09:16:55;8.20;99.90
48744;DHT22;34538;48.836;9.174;2024-03-02T09:19:22;8.30;99.90
48744;DHT22;34538;48.836;9.174;2024-03-02T09:21:49;8.50;99.90
48744;DHT22;34538;48.836;9.174;2024-03-02T09:24:16;8.60;99.90
48744;DHT22;34538;48.836;9.174;2024-03-02T09:26:43;8.70;99.90
48744;DHT22;34538;48.836;9.174;2024-03-02T09:29:11;8.60;99.90
48744;DHT22;34538;48.836;9.174;2024-03-02T09:31:39;8.80;99.90
48744;DHT22;34538;48.836;9.174;2024-03-02T09:34:06;8.90;99.90
48744;DHT22;34538;48.836;9.174;2024-03-02T09:36:33;8.90;99.90
48744;DHT22;34538;48.836;9.174;2024-03-02T09:39:00;9.10;99.90
48744;DHT22;34538;48.836;9.174;2024-03-02T09:41:29;9.10;99.90
48744;DHT22;34538;48.836;9.174;2024-03-02T09:43:56;9.20;99.90
48744;DHT22;34538;48.836;9.174;2024-03-02T09:46:25;9.40;99.90
48744;DHT22;34538;48.836;9.174;2024-03-02T09:48:52;9.40;99.90
48744;DHT22;34538;48.836;9.174;2024-03-02T09:51:20;9.50;99.90
48744;DHT22;34538;48.836;9.174;2024-03-02T09:53:47;9.60;99.90
48744;DHT22;34538;48.836;9.174;2024-03-02T09:56:15;9.70;99.90
48744;DHT22;34538;48.836;9.174;2024-03-02T09:58:44;9.70;99.90
48744;DHT22;34538;48.836;9.174;2024-03-02T10:01:10;9.80;99.90
48744;DHT22;34538;48.836;9.174;2024-03-02T10:03:39;9.90;99.90
48744;DHT22;34538;48.836;9.174;2024-03-02T10:06:22;9.90;99.90
48744;DHT22;34538;48.836;9.174;2024-03-02T10:08:49;10.00;99.90
48744;DHT22;34538;48.836;9.174;2024-03-02T10:11:26;10.10;99.90
48744;DHT22;34538;48.836;9.174;2024-03-02T10:14:04;10.20;99.90
48744;DHT22;34538;48.836;9.174;2024-03-02T10:16:34;10.30;99.90
48744;DHT22;34538;48.836;9.174;2024-03-02T10:19:16;10.40;99.90
48744;DHT22;34538;48.836;9.174;2024-03-02T10:21:44;10.50;99.90
48744;DHT22;34538;48.836;9.174;2024-03-02T10:24:11;10.60;99.90
48744;DHT22;34538;48.836;9.174;2024-03-02T10:26:39;10.60;99.90
48744;DHT22;34538;48.836;9.174;2024-03-02T10:29:08;10.70;99.90
48744;DHT22;34538;48.836;9.174;2024-03-02T10:31:37;10.80;99.90
48744;DHT22;34538;48.836;9.174;2024-03-02T10:34:04;10.80;99.90
48744;DHT22;34538;48.836;9.174;2024-03-02T10:36:33;10.90;99.90
48744;DHT22;34538;48.836;9.174;2024-03-02T10:39:02;11.00;99.90
48744;DHT22;34538;48.836;9.174;2024-03-02T10:41:32;11.00;99.90
48744;DHT22;34538;48.836;9.174;2024-03-02T10:44:02;11.20;99.90
48744;DHT22;34538;48.836;9.174;2024-03-02T10:46:30;11.30;99.90
48744;DHT22;34538;48.836;9.174;2024-03-02T10:48:58;11.30;99.90
48744;DHT22;34538;48.836;9.174;2024-03-02T10:51:26;11.40;99.90
48744;DHT22;34538;48.836;9.174;2024-03-02T10:53:58;11.40;99.90
48744;DHT22;34538;48.836;9.174;2024-03-02T10:56:28;11.50;99.90
48744;DHT22;34538;48.836;9.174;2024-03-02T10:59:02;11.50;99.90
48744;DHT22;34538;48.836;9.174;2024-03-02T11:01:31;11.50;99.90
48744;DHT22;34538;48.836;9.174;2024-03-02T11:03:59;11.60;99.90
48744;DHT22;34538;48.836;9.174;2024-03-02T11:06:29;11.60;99.90
48744;DHT22;34538;48.836;9.174;2024-03-02T11:09:02;11.70;99.90
48744;DHT22;34538;48.836;9.174;2024-03-02T11:11:37;11.70;99.90
48744;DHT22;34538;48.836;9.174;2024-03-02T11:14:08;11.80;99.90
48744;DHT22;34538;48.836;9.174;2024-03-02T11:16:38;11.90;99.90
48744;DHT22;34538;48.836;9.174;2024-03-02T11:19:08;11.90;99.90
48744;DHT22;34538;48.836;9.174;2024-03-02T11:21:36;12.00;99.90
48744;DHT22;34538;48.836;9.174;2024-03-02T11:24:29;12.20;99.90
48744;DHT22;34538;48.836;9.174;2024-03-02T11:26:59;12.30;99.90
48744;DHT22;34538;48.836;9.174;2024-03-02T11:29:46;12.30;99.90
48744;DHT22;34538;48.836;9.174;2024-03-02T11:32:18;12.50;99.90
48744;DHT22;34538;48.836;9.174;2024-03-02T11:34:48;12.50;99.90
48744;DHT22;34538;48.836;9.174;2024-03-02T11:37:17;12.50;99.90
48744;DHT22;34538;48.836;9.174;2024-03-02T11:39:46;12.60;99.90
48744;DHT22;34538;48.836;9.174;2024-03-02T11:42:14;12.70;99.90
48744;DHT22;34538;48.836;9.174;2024-03-02T11:44:43;12.80;99.90
48744;DHT22;34538;48.836;9.174;2024-03-02T11:47:12;12.90;99.90
48744;DHT22;34538;48.836;9.174;2024-03-02T11:49:42;12.90;99.90
48744;DHT22;34538;48.836;9.174;2024-03-02T11:52:12;13.00;99.90
48744;DHT22;34538;48.836;9.174;2024-03-02T11:54:40;13.10;99.90
48744;DHT22;34538;48.836;9.174;2024-03-02T11:57:14;13.20;99.90
48744;DHT22;34538;48.836;9.174;2024-03-02T11:59:41;13.30;99.90
48744;DHT22;34538;48.836;9.174;2024-03-02T12:02:15;13.30;99.90
48744;DHT22;34538;48.836;9.174;2024-03-02T12:04:43;13.40;99.90
48744;DHT22;34538;48.836;9.174;2024-03-02T12:07:11;13.40;99.90
48744;DHT22;34538;48.836;9.174;2024-03-02T12:09:38;13.40;99.90
48744;DHT22;34538;48.836;9.174;2024-03-02T12:12:06;13.50;99.90
48744;DHT22;34538;48.836;9.174;2024-03-02T12:14:36;13.60;99.90
48744;DHT22;34538;48.836;9.174;2024-03-02T12:17:04;13.70;99.90
48744;DHT22;34538;48.836;9.174;2024-03-02T12:19:33;13.80;99.90
48744;DHT22;34538;48.836;9.174;2024-03-02T12:22:00;13.90;99.90
48744;DHT22;34538;48.836;9.174;2024-03-02T12:24:28;13.90;99.90
48744;DHT22;34538;48.836;9.174;2024-03-02T12:26:55;14.10;99.90
48744;DHT22;34538;48.836;9.174;2024-03-02T12:29:23;14.20;99.90
48744;DHT22;34538;48.836;9.174;2024-03-02T12:31:52;14.30;99.90
48744;DHT22;34538;48.836;9.174;2024-03-02T12:34:19;14.50;99.90
48744;DHT22;34538;48.836;9.174;2024-03-02T12:36:46;14.60;99.90
48744;DHT22;34538;48.836;9.174;2024-03-02T12:39:18;14.60;99.90
48744;DHT22;34538;48.836;9.174;2024-03-02T12:41:46;14.70;99.90
48744;DHT22;34538;48.836;9.174;2024-03-02T12:44:15;14.80;99.90
48744;DHT22;34538;48.836;9.174;2024-03-02T12:46:42;14.90;99.90
48744;DHT22;34538;48.836;9.174;2024-03-02T12:49:12;14.90;99.90
48744;DHT22;34538;48.836;9.174;2024-03-02T12:51:40;14.90;99.90
48744;DHT22;34538;48.836;9.174;2024-03-02T12:54:08;15.00;99.90
48744;DHT22;34538;48.836;9.174;2024-03-02T12:56:35;15.00;99.90
48744;DHT22;34538;48.836;9.174;2024-03-02T12:59:03;14.90;99.90
48744;DHT22;34538;48.836;9.174;2024-03-02T13:01:30;15.00;99.90
48744;DHT22;34538;48.836;9.174;2024-03-02T13:03:58;15.00;99.90
48744;DHT22;34538;48.836;9.174;2024-03-02T13:06:26;15.00;99.90
48744;DHT22;34538;48.836;9.174;2024-03-02T13:08:54;15.10;99.90
48744;DHT22;34538;48.836;9.174;2024-03-02T13:11:22;15.20;99.70
48744;DHT22;34538;48.836;9.174;2024-03-02T13:13:50;15.20;99.90
48744;DHT22;34538;48.836;9.174;2024-03-02T13:16:18;15.20;99.90
48744;DHT22;34538;48.836;9.174;2024-03-02T13:18:45;15.20;99.90
48744;DHT22;34538;48.836;9.174;2024-03-02T13:21:13;15.20;99.90
48744;DHT22;34538;48.836;9.174;2024-03-02T13:23:41;15.20;99.90
48744;DHT22;34538;48.836;9.174;2024-03-02T13:26:08;15.30;99.90
48744;DHT22;34538;48.836;9.174;2024-03-02T13:28:36;15.30;99.80
48744;DHT22;34538;48.836;9.174;2024-03-02T13:31:04;15.20;99.90
48744;DHT22;34538;48.836;9.174;2024-03-02T13:33:32;15.20;99.90
48744;DHT22;34538;48.836;9.174;2024-03-02T13:35:59;15.20;99.90
48744;DHT22;34538;48.836;9.174;2024-03-02T13:38:27;15.30;99.90
48744;DHT22;34538;48.836;9.174;2024-03-02T13:40:55;15.40;99.90
48744;DHT22;34538;48.836;9.174;2024-03-02T13:43:22;15.50;99.70
48744;DHT22;34538;48.836;9.174;2024-03-02T13:45:50;15.50;99.20
48744;DHT22;34538;48.836;9.174;2024-03-02T13:48:17;15.40;99.30
48744;DHT22;34538;48.836;9.174;2024-03-02T13:50:45;15.30;99.00
48744;DHT22;34538;48.836;9.174;2024-03-02T13:53:12;15.30;98.90
48744;DHT22;34538;48.836;9.174;2024-03-02T13:55:39;15.40;99.60
48744;DHT22;34538;48.836;9.174;2024-03-02T13:58:08;15.60;99.20
48744;DHT22;34538;48.836;9.174;2024-03-02T14:00:35;15.70;99.10
48744;DHT22;34538;48.836;9.174;2024-03-02T14:03:03;15.80;99.00
48744;DHT22;34538;48.836;9.174;2024-03-02T14:05:30;15.90;99.50
48744;DHT22;34538;48.836;9.174;2024-03-02T14:07:57;15.90;99.00
48744;DHT22;34538;48.836;9.174;2024-03-02T14:10:25;15.90;99.00
48744;DHT22;34538;48.836;9.174;2024-03-02T14:12:53;15.90;99.20
48744;DHT22;34538;48.836;9.174;2024-03-02T14:15:22;15.90;98.60
48744;DHT22;34538;48.836;9.174;2024-03-02T14:17:49;15.90;98.80
48744;DHT22;34538;48.836;9.174;2024-03-02T14:20:16;15.80;97.80
48744;DHT22;34538;48.836;9.174;2024-03-02T14:22:48;15.70;98.10
48744;DHT22;34538;48.836;9.174;2024-03-02T14:25:15;15.60;98.70
48744;DHT22;34538;48.836;9.174;2024-03-02T14:27:43;15.60;98.80
48744;DHT22;34538;48.836;9.174;2024-03-02T14:30:10;15.50;98.70
48744;DHT22;34538;48.836;9.174;2024-03-02T14:32:39;15.50;99.00
48744;DHT22;34538;48.836;9.174;2024-03-02T14:35:07;15.50;98.30
48744;DHT22;34538;48.836;9.174;2024-03-02T14:37:35;15.50;98.20
48744;DHT22;34538;48.836;9.174;2024-03-02T14:40:03;15.50;98.40
48744;DHT22;34538;48.836;9.174;2024-03-02T14:42:32;15.50;97.80
48744;DHT22;34538;48.836;9.174;2024-03-02T14:44:59;15.40;98.10
48744;DHT22;34538;48.836;9.174;2024-03-02T14:47:28;15.40;98.10
48744;DHT22;34538;48.836;9.174;2024-03-02T14:49:57;15.30;97.60
48744;DHT22;34538;48.836;9.174;2024-03-02T14:52:24;15.30;97.70
48744;DHT22;34538;48.836;9.174;2024-03-02T14:54:51;15.40;97.70
48744;DHT22;34538;48.836;9.174;2024-03-02T14:57:18;15.40;97.90
48744;DHT22;34538;48.836;9.174;2024-03-02T14:59:45;15.40;97.60
48744;DHT22;34538;48.836;9.174;2024-03-02T15:02:12;15.40;97.80
48744;DHT22;34538;48.836;9.174;2024-03-02T15:04:39;15.40;97.50
48744;DHT22;34538;48.836;9.174;2024-03-02T15:07:07;15.40;96.80
48744;DHT22;34538;48.836;9.174;2024-03-02T15:09:34;15.40;96.70
48744;DHT22;34538;48.836;9.174;2024-03-02T15:12:03;15.40;96.90
48744;DHT22;34538;48.836;9.174;2024-03-02T15:14:31;15.40;96.50
48744;DHT22;34538;48.836;9.174;2024-03-02T15:16:59;15.40;96.70
48744;DHT22;34538;48.836;9.174;2024-03-02T15:19:26;15.40;96.70
48744;DHT22;34538;48.836;9.174;2024-03-02T15:21:52;15.30;96.20
48744;DHT22;34538;48.836;9.174;2024-03-02T15:24:21;15.40;96.00
48744;DHT22;34538;48.836;9.174;2024-03-02T15:26:48;15.30;96.20
48744;DHT22;34538;48.836;9.174;2024-03-02T15:29:15;15.30;96.10
48744;DHT22;34538;48.836;9.174;2024-03-02T15:31:42;15.20;96.20
48744;DHT22;34538;48.836;9.174;2024-03-02T15:34:08;15.20;96.10
48744;DHT22;34538;48.836;9.174;2024-03-02T15:36:35;15.10;96.20
48744;DHT22;34538;48.836;9.174;2024-03-02T15:39:02;15.10;96.30
48744;DHT22;34538;48.836;9.174;2024-03-02T15:41:35;15.00;96.60
48744;DHT22;34538;48.836;9.174;2024-03-02T15:44:02;14.90;96.60